sensor_id;sensor_type;location;lat;lon;timestamp;pressure;altitude;pressure_sealevel;temperature;humidity
12963;BME280;6546;49.882;8.666;2023-03-18T00:00:14;99554.53;;;11.90;55.72
12963;BME280;6546;49.882;8.666;2023-03-18T00:02:41;99537.69;;;11.79;55.58
12963;BME280;6546;49.882;8.666;2023-03-18T00:05:08;99562.97;;;11.92;55.48
12963;BME280;6546;49.882;8.666;2023-03-18T00:07:36;99565.56;;;11.92;55.58
12963;BME280;6546;49.882;8.666;2023-03-18T00:10:03;99568.16;;;11.92;55.55
12963;BME280;6546;49.882;8.666;2023-03-18T00:12:30;99556.16;;;11.91;55.44
12963;BME280;6546;49.882;8.666;2023-03-18T00:14:58;99566.31;;;11.92;55.38
12963;BME280;6546;49.882;8.666;2023-03-18T00:17:26;99565.78;;;11.97;55.40
12963;BME280;6546;49.882;8.666;2023-03-18T00:19:53;99570.38;;;11.95;55.55
12963;BME280;6546;49.882;8.666;2023-03-18T00:22:19;99566.97;;;11.94;55.82
12963;BME280;6546;49.882;8.666;2023-03-18T00:24:46;99567.78;;;11.95;55.85
12963;BME280;6546;49.882;8.666;2023-03-18T00:27:14;99572.59;;;11.98;55.62
12963;BME280;6546;49.882;8.666;2023-03-18T00:29:42;99574.91;;;11.93;55.84
12963;BME280;6546;49.882;8.666;2023-03-18T00:32:08;99581.72;;;11.94;55.98
12963;BME280;6546;49.882;8.666;2023-03-18T00:34:36;99585.94;;;11.95;55.86
12963;BME280;6546;49.882;8.666;2023-03-18T00:37:04;99586.91;;;11.94;55.75
12963;BME280;6546;49.882;8.666;2023-03-18T00:39:30;99591.28;;;11.93;55.95
12963;BME280;6546;49.882;8.666;2023-03-18T00:41:59;99594.88;;;11.92;56.05
12963;BME280;6546;49.882;8.666;2023-03-18T00:44:38;99597.66;;;11.91;56.13
12963;BME280;6546;49.882;8.666;2023-03-18T00:47:07;99602.84;;;11.91;56.09
12963;BME280;6546;49.882;8.666;2023-03-18T00:49:33;99596.03;;;11.90;56.17
12963;BME280;6546;49.882;8.666;2023-03-18T00:52:01;99590.84;;;11.90;56.29
12963;BME280;6546;49.882;8.666;2023-03-18T00:54:28;99585.66;;;11.90;56.41
12963;BME280;6546;49.882;8.666;2023-03-18T00:56:55;99582.09;;;11.91;56.54
12963;BME280;6546;49.882;8.666;2023-03-18T00:59:22;99578.88;;;11.89;56.41
12963;BME280;6546;49.882;8.666;2023-03-18T01:01:50;99587.66;;;11.88;56.50
12963;BME280;6546;49.882;8.666;2023-03-18T01:04:16;99592.84;;;11.88;56.42
12963;BME280;6546;49.882;8.666;2023-03-18T01:06:43;99604.19;;;11.87;56.54
12963;BME280;6546;49.882;8.666;2023-03-18T01:09:12;99601.59;;;11.87;56.49
12963;BME280;6546;49.882;8.666;2023-03-18T01:11:38;99597.38;;;11.86;56.77
12963;BME280;6546;49.882;8.666;2023-03-18T01:14:05;99603.22;;;11.88;56.83
12963;BME280;6546;49.882;8.666;2023-03-18T01:16:32;99605.16;;;11.86;57.39
12963;BME280;6546;49.882;8.666;2023-03-18T01:18:58;99600.34;;;11.83;57.69
12963;BME280;6546;49.882;8.666;2023-03-18T01:21:25;99590.59;;;11.85;58.26
12963;BME280;6546;49.882;8.666;2023-03-18T01:23:52;99586.41;;;11.84;58.69
12963;BME280;6546;49.882;8.666;2023-03-18T01:26:20;99595.34;;;11.81;58.87
12963;BME280;6546;49.882;8.666;2023-03-18T01:28:47;99587.72;;;11.80;59.02
12963;BME280;6546;49.882;8.666;2023-03-18T01:31:14;99593.13;;;11.78;59.13
12963;BME280;6546;49.882;8.666;2023-03-18T01:33:41;99593.13;;;11.78;59.05
12963;BME280;6546;49.882;8.666;2023-03-18T01:36:08;99598.66;;;11.75;59.12
12963;BME280;6546;49.882;8.666;2023-03-18T01:38:34;99601.50;;;11.80;59.18
12963;BME280;6546;49.882;8.666;2023-03-18T01:41:01;99599.28;;;11.77;59.19
12963;BME280;6546;49.882;8.666;2023-03-18T01:43:32;99599.28;;;11.77;59.21
12963;BME280;6546;49.882;8.666;2023-03-18T01:48:59;99594.66;;;11.73;60.57
12963;BME280;6546;49.882;8.666;2023-03-18T01:51:27;99600.97;;;11.70;60.89
12963;BME280;6546;49.882;8.666;2023-03-18T01:53:56;99600.50;;;11.67;61.40
12963;BME280;6546;49.882;8.666;2023-03-18T01:56:24;99598.72;;;11.67;61.97
12963;BME280;6546;49.882;8.666;2023-03-18T01:58:54;99599.09;;;11.64;62.18
12963;BME280;6546;49.882;8.666;2023-03-18T02:04:08;99599.28;;;11.63;61.87
12963;BME280;6546;49.882;8.666;2023-03-18T02:06:36;99596.03;;;11.60;61.94
12963;BME280;6546;49.882;8.666;2023-03-18T02:09:03;99587.66;;;11.58;62.39
12963;BME280;6546;49.882;8.666;2023-03-18T02:11:31;99589.28;;;11.59;62.41
12963;BME280;6546;49.882;8.666;2023-03-18T02:14:00;99589.06;;;11.61;62.29
12963;BME280;6546;49.882;8.666;2023-03-18T02:16:32;99575.66;;;11.57;62.20
12963;BME280;6546;49.882;8.666;2023-03-18T02:19:03;99585.06;;;11.58;62.31
12963;BME280;6546;49.882;8.666;2023-03-18T02:21:39;99585.06;;;11.58;62.34
12963;BME280;6546;49.882;8.666;2023-03-18T02:24:13;99579.88;;;11.58;62.67
12963;BME280;6546;49.882;8.666;2023-03-18T02:26:45;99581.03;;;11.56;62.81
12963;BME280;6546;49.882;8.666;2023-03-18T02:29:16;99588.63;;;11.57;62.92
12963;BME280;6546;49.882;8.666;2023-03-18T02:31:46;99588.00;;;11.55;62.90
12963;BME280;6546;49.882;8.666;2023-03-18T02:34:14;99589.00;;;11.54;63.17
12963;BME280;6546;49.882;8.666;2023-03-18T02:36:41;99586.41;;;11.54;62.89
12963;BME280;6546;49.882;8.666;2023-03-18T02:39:12;99582.81;;;11.55;63.00
12963;BME280;6546;49.882;8.666;2023-03-18T02:41:39;99597.56;;;11.55;63.26
12963;BME280;6546;49.882;8.666;2023-03-18T02:44:05;99587.56;;;11.52;63.22
12963;BME280;6546;49.882;8.666;2023-03-18T02:46:37;99597.75;;;11.53;63.06
12963;BME280;6546;49.882;8.666;2023-03-18T02:49:09;99591.41;;;11.56;62.71
12963;BME280;6546;49.882;8.666;2023-03-18T02:51:36;99600.97;;;11.55;62.38
12963;BME280;6546;49.882;8.666;2023-03-18T02:54:07;99605.19;;;11.56;62.45
12963;BME280;6546;49.882;8.666;2023-03-18T02:56:34;99599.34;;;11.54;62.47
12963;BME280;6546;49.882;8.666;2023-03-18T02:59:01;99602.31;;;11.51;63.20
12963;BME280;6546;49.882;8.666;2023-03-18T03:01:28;99597.31;;;11.50;63.79
12963;BME280;6546;49.882;8.666;2023-03-18T03:03:58;99603.47;;;11.49;64.12
12963;BME280;6546;49.882;8.666;2023-03-18T03:06:25;99600.28;;;11.47;64.60
12963;BME280;6546;49.882;8.666;2023-03-18T03:08:51;99598.81;;;11.44;64.73
12963;BME280;6546;49.882;8.666;2023-03-18T03:11:19;99600.59;;;11.44;64.79
12963;BME280;6546;49.882;8.666;2023-03-18T03:13:46;99601.78;;;11.41;65.39
12963;BME280;6546;49.882;8.666;2023-03-18T03:16:13;99591.75;;;11.38;65.89
12963;BME280;6546;49.882;8.666;2023-03-18T03:18:40;99596.34;;;11.36;66.17
12963;BME280;6546;49.882;8.666;2023-03-18T03:21:10;99596.34;;;11.36;65.73
12963;BME280;6546;49.882;8.666;2023-03-18T03:23:38;99612.25;;;11.33;65.64
12963;BME280;6546;49.882;8.666;2023-03-18T03:26:04;99621.00;;;11.32;65.92
12963;BME280;6546;49.882;8.666;2023-03-18T03:28:32;99618.75;;;11.29;66.42
12963;BME280;6546;49.882;8.666;2023-03-18T03:30:59;99624.75;;;11.30;66.91
12963;BME280;6546;49.882;8.666;2023-03-18T03:33:26;99617.13;;;11.28;67.10
12963;BME280;6546;49.882;8.666;2023-03-18T03:35:53;99622.88;;;11.24;67.54
12963;BME280;6546;49.882;8.666;2023-03-18T03:38:23;99620.09;;;11.25;68.23
12963;BME280;6546;49.882;8.666;2023-03-18T03:40:50;99628.88;;;11.24;68.57
12963;BME280;6546;49.882;8.666;2023-03-18T03:43:18;99629.84;;;11.23;69.06
12963;BME280;6546;49.882;8.666;2023-03-18T03:45:45;99632.78;;;11.20;69.84
12963;BME280;6546;49.882;8.666;2023-03-18T03:48:12;99630.53;;;11.17;69.88
12963;BME280;6546;49.882;8.666;2023-03-18T03:50:39;99628.13;;;11.16;70.21
12963;BME280;6546;49.882;8.666;2023-03-18T03:53:06;99625.72;;;11.14;70.63
12963;BME280;6546;49.882;8.666;2023-03-18T03:55:36;99613.72;;;11.13;70.03
12963;BME280;6546;49.882;8.666;2023-03-18T03:58:02;99633.28;;;11.16;68.85
12963;BME280;6546;49.882;8.666;2023-03-18T04:00:29;99635.44;;;11.12;69.20
12963;BME280;6546;49.882;8.666;2023-03-18T04:02:57;99638.03;;;11.12;69.76
12963;BME280;6546;49.882;8.666;2023-03-18T04:05:24;99638.03;;;11.12;70.05
12963;BME280;6546;49.882;8.666;2023-03-18T04:07:52;99632.22;;;11.10;70.40
12963;BME280;6546;49.882;8.666;2023-03-18T04:10:20;99633.84;;;11.11;70.54
12963;BME280;6546;49.882;8.666;2023-03-18T04:12:48;99632.22;;;11.10;70.10
12963;BME280;6546;49.882;8.666;2023-03-18T04:15:16;99636.44;;;11.11;69.84
12963;BME280;6546;49.882;8.666;2023-03-18T04:17:44;99634.47;;;11.13;70.00
12963;BME280;6546;49.882;8.666;2023-03-18T04:20:12;99628.47;;;11.13;69.84
12963;BME280;6546;49.882;8.666;2023-03-18T04:22:39;99620.88;;;11.11;69.92
12963;BME280;6546;49.882;8.666;2023-03-18T04:25:06;99616.69;;;11.10;70.24
12963;BME280;6546;49.882;8.666;2023-03-18T04:27:35;99607.56;;;11.14;69.84
12963;BME280;6546;49.882;8.666;2023-03-18T04:30:04;99622.13;;;11.15;68.90
12963;BME280;6546;49.882;8.666;2023-03-18T04:32:31;99627.66;;;11.12;68.85
12963;BME280;6546;49.882;8.666;2023-03-18T04:34:57;99624.44;;;11.10;68.78
12963;BME280;6546;49.882;8.666;2023-03-18T04:37:24;99624.09;;;11.13;68.32
12963;BME280;6546;49.882;8.666;2023-03-18T04:39:51;99626.22;;;11.10;68.37
12963;BME280;6546;49.882;8.666;2023-03-18T04:42:17;99630.44;;;11.11;68.52
12963;BME280;6546;49.882;8.666;2023-03-18T04:44:44;99629.00;;;11.08;68.66
12963;BME280;6546;49.882;8.666;2023-03-18T04:47:12;99626.41;;;11.08;68.81
12963;BME280;6546;49.882;8.666;2023-03-18T04:49:39;99626.94;;;11.03;69.04
12963;BME280;6546;49.882;8.666;2023-03-18T04:52:07;99637.09;;;11.05;69.17
12963;BME280;6546;49.882;8.666;2023-03-18T04:54:33;99624.09;;;10.98;69.01
12963;BME280;6546;49.882;8.666;2023-03-18T04:57:01;99627.09;;;11.02;68.91
12963;BME280;6546;49.882;8.666;2023-03-18T04:59:30;99625.16;;;11.04;68.46
12963;BME280;6546;49.882;8.666;2023-03-18T05:01:56;99620.59;;;11.06;68.21
12963;BME280;6546;49.882;8.666;2023-03-18T05:04:25;99619.06;;;10.97;68.44
12963;BME280;6546;49.882;8.666;2023-03-18T05:06:52;99622.16;;;10.92;68.74
12963;BME280;6546;49.882;8.666;2023-03-18T05:09:19;99626.88;;;10.89;69.22
12963;BME280;6546;49.882;8.666;2023-03-18T05:11:45;99628.03;;;10.86;69.41
12963;BME280;6546;49.882;8.666;2023-03-18T05:14:12;99633.78;;;10.82;69.84
12963;BME280;6546;49.882;8.666;2023-03-18T05:16:39;99633.31;;;10.78;70.29
12963;BME280;6546;49.882;8.666;2023-03-18T05:19:06;99631.88;;;10.76;70.66
12963;BME280;6546;49.882;8.666;2023-03-18T05:21:35;99634.97;;;10.71;70.97
12963;BME280;6546;49.882;8.666;2023-03-18T05:24:02;99639.69;;;10.68;71.38
12963;BME280;6546;49.882;8.666;2023-03-18T05:26:28;99634.69;;;10.66;71.61
12963;BME280;6546;49.882;8.666;2023-03-18T05:28:55;99647.47;;;10.68;71.71
12963;BME280;6546;49.882;8.666;2023-03-18T05:31:21;99642.47;;;10.66;71.96
12963;BME280;6546;49.882;8.666;2023-03-18T05:33:49;99640.03;;;10.65;72.06
12963;BME280;6546;49.882;8.666;2023-03-18T05:36:15;99643.25;;;10.67;72.05
12963;BME280;6546;49.882;8.666;2023-03-18T05:38:44;99643.25;;;10.67;72.00
12963;BME280;6546;49.882;8.666;2023-03-18T05:41:11;99642.13;;;10.69;72.16
12963;BME280;6546;49.882;8.666;2023-03-18T05:43:38;99649.69;;;10.71;71.77
12963;BME280;6546;49.882;8.666;2023-03-18T05:46:04;99640.16;;;10.71;71.50
12963;BME280;6546;49.882;8.666;2023-03-18T05:48:31;99650.97;;;10.75;70.80
12963;BME280;6546;49.882;8.666;2023-03-18T05:50:58;99658.56;;;10.76;70.33
12963;BME280;6546;49.882;8.666;2023-03-18T05:53:24;99651.25;;;10.80;70.04
12963;BME280;6546;49.882;8.666;2023-03-18T05:55:52;99645.91;;;10.81;69.49
12963;BME280;6546;49.882;8.666;2023-03-18T05:58:20;99643.94;;;10.83;69.14
12963;BME280;6546;49.882;8.666;2023-03-18T06:00:47;99652.78;;;10.89;68.64
12963;BME280;6546;49.882;8.666;2023-03-18T06:03:14;99646.81;;;10.88;67.98
12963;BME280;6546;49.882;8.666;2023-03-18T06:05:42;99651.81;;;10.90;67.94
12963;BME280;6546;49.882;8.666;2023-03-18T06:08:08;99648.41;;;10.89;68.18
12963;BME280;6546;49.882;8.666;2023-03-18T06:10:35;99652.63;;;10.90;67.58
12963;BME280;6546;49.882;8.666;2023-03-18T06:13:04;99654.88;;;10.93;67.65
12963;BME280;6546;49.882;8.666;2023-03-18T06:15:30;99653.09;;;10.94;67.13
12963;BME280;6546;49.882;8.666;2023-03-18T06:17:57;99659.69;;;10.96;67.05
12963;BME280;6546;49.882;8.666;2023-03-18T06:20:24;99655.78;;;11.00;66.73
12963;BME280;6546;49.882;8.666;2023-03-18T06:22:50;99662.41;;;11.03;66.50
12963;BME280;6546;49.882;8.666;2023-03-18T06:25:19;99658.66;;;11.05;66.32
12963;BME280;6546;49.882;8.666;2023-03-18T06:27:46;99670.47;;;11.08;66.05
12963;BME280;6546;49.882;8.666;2023-03-18T06:30:15;99673.47;;;11.12;65.57
12963;BME280;6546;49.882;8.666;2023-03-18T06:32:42;99673.47;;;11.12;65.39
12963;BME280;6546;49.882;8.666;2023-03-18T06:35:11;99676.53;;;11.15;64.97
12963;BME280;6546;49.882;8.666;2023-03-18T06:37:39;99678.16;;;11.16;64.29
12963;BME280;6546;49.882;8.666;2023-03-18T06:40:08;99686.19;;;11.21;64.13
12963;BME280;6546;49.882;8.666;2023-03-18T06:42:35;99677.63;;;11.21;63.92
12963;BME280;6546;49.882;8.666;2023-03-18T06:45:02;99683.91;;;11.26;63.62
12963;BME280;6546;49.882;8.666;2023-03-18T06:47:30;99681.56;;;11.31;63.54
12963;BME280;6546;49.882;8.666;2023-03-18T06:49:57;99681.06;;;11.36;63.32
12963;BME280;6546;49.882;8.666;2023-03-18T06:52:23;99687.50;;;11.40;63.23
12963;BME280;6546;49.882;8.666;2023-03-18T06:54:50;99685.53;;;11.42;63.67
12963;BME280;6546;49.882;8.666;2023-03-18T06:57:17;99687.31;;;11.41;63.91
12963;BME280;6546;49.882;8.666;2023-03-18T06:59:44;99691.53;;;11.42;63.48
12963;BME280;6546;49.882;8.666;2023-03-18T07:02:12;99687.97;;;11.43;63.92
12963;BME280;6546;49.882;8.666;2023-03-18T07:04:41;99692.44;;;11.49;62.22
12963;BME280;6546;49.882;8.666;2023-03-18T07:07:08;99694.94;;;11.57;61.52
12963;BME280;6546;49.882;8.666;2023-03-18T07:09:34;99698.16;;;11.59;61.32
12963;BME280;6546;49.882;8.666;2023-03-18T07:12:01;99694.56;;;11.60;61.19
12963;BME280;6546;49.882;8.666;2023-03-18T07:14:28;99696.34;;;11.60;61.29
12963;BME280;6546;49.882;8.666;2023-03-18T07:16:55;99703.38;;;11.59;60.91
12963;BME280;6546;49.882;8.666;2023-03-18T07:19:21;99699.75;;;11.60;60.86
12963;BME280;6546;49.882;8.666;2023-03-18T07:21:50;99690.84;;;11.63;61.28
12963;BME280;6546;49.882;8.666;2023-03-18T07:24:16;99697.38;;;11.74;61.24
12963;BME280;6546;49.882;8.666;2023-03-18T07:26:45;99705.56;;;11.85;60.76
12963;BME280;6546;49.882;8.666;2023-03-18T07:29:11;99706.88;;;11.96;60.53
12963;BME280;6546;49.882;8.666;2023-03-18T07:31:38;99708.56;;;12.03;59.03
12963;BME280;6546;49.882;8.666;2023-03-18T07:34:04;99704.91;;;12.13;58.38
12963;BME280;6546;49.882;8.666;2023-03-18T07:36:31;99708.22;;;12.21;56.86
12963;BME280;6546;49.882;8.666;2023-03-18T07:38:59;99708.72;;;12.31;57.38
12963;BME280;6546;49.882;8.666;2023-03-18T07:41:26;99702.44;;;12.40;57.46
12963;BME280;6546;49.882;8.666;2023-03-18T07:43:52;99703.94;;;12.49;57.10
12963;BME280;6546;49.882;8.666;2023-03-18T07:46:19;99706.78;;;12.54;56.77
12963;BME280;6546;49.882;8.666;2023-03-18T07:48:46;99709.66;;;12.59;56.01
12963;BME280;6546;49.882;8.666;2023-03-18T07:51:13;99706.69;;;12.62;55.03
12963;BME280;6546;49.882;8.666;2023-03-18T07:53:40;99712.31;;;12.66;54.78
12963;BME280;6546;49.882;8.666;2023-03-18T07:56:08;99718.81;;;12.77;54.43
12963;BME280;6546;49.882;8.666;2023-03-18T07:58:35;99713.25;;;12.80;54.63
12963;BME280;6546;49.882;8.666;2023-03-18T08:01:02;99721.28;;;12.85;54.26
12963;BME280;6546;49.882;8.666;2023-03-18T08:03:28;99712.31;;;12.87;54.36
12963;BME280;6546;49.882;8.666;2023-03-18T08:05:55;99722.53;;;12.89;54.01
12963;BME280;6546;49.882;8.666;2023-03-18T08:08:22;99717.81;;;12.99;53.37
12963;BME280;6546;49.882;8.666;2023-03-18T08:10:49;99720.47;;;13.05;53.36
12963;BME280;6546;49.882;8.666;2023-03-18T08:13:18;99721.38;;;13.12;53.04
12963;BME280;6546;49.882;8.666;2023-03-18T08:15:45;99713.84;;;13.18;54.46
12963;BME280;6546;49.882;8.666;2023-03-18T08:18:12;99720.47;;;13.20;51.86
12963;BME280;6546;49.882;8.666;2023-03-18T08:20:39;99718.28;;;13.24;52.22
12963;BME280;6546;49.882;8.666;2023-03-18T08:23:05;99717.09;;;13.26;52.16
12963;BME280;6546;49.882;8.666;2023-03-18T08:25:33;99719.31;;;13.29;52.52
12963;BME280;6546;49.882;8.666;2023-03-18T08:27:59;99718.94;;;13.32;51.99
12963;BME280;6546;49.882;8.666;2023-03-18T08:30:28;99726.19;;;13.37;51.59
12963;BME280;6546;49.882;8.666;2023-03-18T08:32:55;99715.41;;;13.40;51.51
12963;BME280;6546;49.882;8.666;2023-03-18T08:35:21;99727.84;;;13.44;50.92
12963;BME280;6546;49.882;8.666;2023-03-18T08:37:48;99726.84;;;13.45;51.00
12963;BME280;6546;49.882;8.666;2023-03-18T08:40:15;99727.06;;;13.44;50.88
12963;BME280;6546;49.882;8.666;2023-03-18T08:42:42;99728.66;;;13.45;51.46
12963;BME280;6546;49.882;8.666;2023-03-18T08:45:10;99730.44;;;13.44;51.18
12963;BME280;6546;49.882;8.666;2023-03-18T08:47:39;99729.66;;;13.44;50.70
12963;BME280;6546;49.882;8.666;2023-03-18T08:50:06;99730.06;;;13.47;51.15
12963;BME280;6546;49.882;8.666;2023-03-18T08:52:33;99725.50;;;13.49;50.32
12963;BME280;6546;49.882;8.666;2023-03-18T08:55:00;99732.66;;;13.47;49.75
12963;BME280;6546;49.882;8.666;2023-03-18T08:57:26;99732.75;;;13.60;49.65
12963;BME280;6546;49.882;8.666;2023-03-18T08:59:53;99737.78;;;13.62;49.93
12963;BME280;6546;49.882;8.666;2023-03-18T09:02:19;99734.03;;;13.71;47.56
12963;BME280;6546;49.882;8.666;2023-03-18T09:04:48;99738.69;;;13.76;48.79
12963;BME280;6546;49.882;8.666;2023-03-18T09:07:15;99740.84;;;13.72;48.25
12963;BME280;6546;49.882;8.666;2023-03-18T09:09:42;99736.09;;;13.76;48.97
12963;BME280;6546;49.882;8.666;2023-03-18T09:12:09;99734.34;;;13.83;48.05
12963;BME280;6546;49.882;8.666;2023-03-18T09:14:36;99736.97;;;13.89;47.03
12963;BME280;6546;49.882;8.666;2023-03-18T09:17:04;99736.59;;;13.92;47.55
12963;BME280;6546;49.882;8.666;2023-03-18T09:19:31;99735.41;;;13.95;47.51
12963;BME280;6546;49.882;8.666;2023-03-18T09:21:59;99743.63;;;13.98;47.67
12963;BME280;6546;49.882;8.666;2023-03-18T09:24:26;99735.63;;;14.00;47.02
12963;BME280;6546;49.882;8.666;2023-03-18T09:26:52;99729.84;;;14.04;48.08
12963;BME280;6546;49.882;8.666;2023-03-18T09:29:19;99733.03;;;14.06;48.03
12963;BME280;6546;49.882;8.666;2023-03-18T09:31:45;99731.84;;;14.09;48.33
12963;BME280;6546;49.882;8.666;2023-03-18T09:34:12;99731.31;;;14.20;46.86
12963;BME280;6546;49.882;8.666;2023-03-18T09:36:38;99728.34;;;14.30;47.20
12963;BME280;6546;49.882;8.666;2023-03-18T09:39:16;99728.81;;;14.33;46.45
12963;BME280;6546;49.882;8.666;2023-03-18T09:41:48;99730.63;;;14.39;47.05
12963;BME280;6546;49.882;8.666;2023-03-18T09:44:22;99723.81;;;14.45;47.19
12963;BME280;6546;49.882;8.666;2023-03-18T09:50:00;99708.81;;;14.47;46.44
12963;BME280;6546;49.882;8.666;2023-03-18T09:52:34;99716.81;;;14.45;46.58
12963;BME280;6546;49.882;8.666;2023-03-18T09:55:15;99721.63;;;14.48;46.92
12963;BME280;6546;49.882;8.666;2023-03-18T09:57:48;99717.66;;;14.52;46.62
12963;BME280;6546;49.882;8.666;2023-03-18T10:00:18;99719.88;;;14.55;46.85
12963;BME280;6546;49.882;8.666;2023-03-18T10:02:49;99728.50;;;14.62;47.90
12963;BME280;6546;49.882;8.666;2023-03-18T10:05:22;99719.72;;;14.70;46.79
12963;BME280;6546;49.882;8.666;2023-03-18T10:07:52;99716.91;;;14.71;47.47
12963;BME280;6546;49.882;8.666;2023-03-18T10:10:27;99716.91;;;14.78;45.77
12963;BME280;6546;49.882;8.666;2023-03-18T10:13:00;99723.09;;;14.70;45.95
12963;BME280;6546;49.882;8.666;2023-03-18T10:15:30;99720.50;;;14.70;46.74
12963;BME280;6546;49.882;8.666;2023-03-18T10:18:01;99722.91;;;14.72;47.39
12963;BME280;6546;49.882;8.666;2023-03-18T10:20:36;99722.50;;;14.68;47.68
12963;BME280;6546;49.882;8.666;2023-03-18T10:23:11;99720.09;;;14.73;47.11
12963;BME280;6546;49.882;8.666;2023-03-18T10:25:47;99717.69;;;14.65;46.87
12963;BME280;6546;49.882;8.666;2023-03-18T10:28:31;99710.84;;;14.64;46.86
12963;BME280;6546;49.882;8.666;2023-03-18T10:31:10;99719.72;;;14.70;47.40
12963;BME280;6546;49.882;8.666;2023-03-18T10:33:45;99717.31;;;14.82;47.16
12963;BME280;6546;49.882;8.666;2023-03-18T10:36:18;99712.53;;;14.85;46.73
12963;BME280;6546;49.882;8.666;2023-03-18T10:38:47;99716.94;;;14.91;46.71
12963;BME280;6546;49.882;8.666;2023-03-18T10:41:20;99715.75;;;15.00;46.39
12963;BME280;6546;49.882;8.666;2023-03-18T10:43:49;99710.53;;;15.07;47.52
12963;BME280;6546;49.882;8.666;2023-03-18T10:46:18;99710.13;;;15.10;46.96
12963;BME280;6546;49.882;8.666;2023-03-18T10:48:47;99714.94;;;15.13;46.85
12963;BME280;6546;49.882;8.666;2023-03-18T10:51:18;99712.97;;;15.15;46.96
12963;BME280;6546;49.882;8.666;2023-03-18T10:53:53;99716.56;;;15.07;46.55
12963;BME280;6546;49.882;8.666;2023-03-18T10:56:24;99705.13;;;15.02;46.58
12963;BME280;6546;49.882;8.666;2023-03-18T10:58:51;99711.75;;;15.04;46.58
12963;BME280;6546;49.882;8.666;2023-03-18T11:01:20;99694.88;;;15.13;46.74
12963;BME280;6546;49.882;8.666;2023-03-18T11:03:51;99705.31;;;15.20;47.17
12963;BME280;6546;49.882;8.666;2023-03-18T11:06:22;99694.50;;;15.23;47.33
12963;BME280;6546;49.882;8.666;2023-03-18T11:08:59;99695.88;;;15.19;47.89
12963;BME280;6546;49.882;8.666;2023-03-18T11:11:29;99707.13;;;15.13;47.24
12963;BME280;6546;49.882;8.666;2023-03-18T11:13:59;99700.50;;;15.10;46.47
12963;BME280;6546;49.882;8.666;2023-03-18T11:16:32;99697.31;;;15.21;46.60
12963;BME280;6546;49.882;8.666;2023-03-18T11:19:06;99698.31;;;15.27;46.64
12963;BME280;6546;49.882;8.666;2023-03-18T11:21:34;99695.88;;;15.32;46.78
12963;BME280;6546;49.882;8.666;2023-03-18T11:24:01;99699.28;;;15.46;47.00
12963;BME280;6546;49.882;8.666;2023-03-18T11:26:48;99706.34;;;15.52;46.65
12963;BME280;6546;49.882;8.666;2023-03-18T11:29:21;99709.56;;;15.60;46.64
12963;BME280;6546;49.882;8.666;2023-03-18T11:31:51;99708.75;;;15.66;46.51
12963;BME280;6546;49.882;8.666;2023-03-18T11:34:19;99700.50;;;15.76;46.56
12963;BME280;6546;49.882;8.666;2023-03-18T11:36:54;99700.47;;;15.83;46.68
12963;BME280;6546;49.882;8.666;2023-03-18T11:39:24;99694.84;;;15.86;46.74
12963;BME280;6546;49.882;8.666;2023-03-18T11:41:53;99699.06;;;15.80;46.16
12963;BME280;6546;49.882;8.666;2023-03-18T11:44:26;99699.88;;;15.81;46.06
12963;BME280;6546;49.882;8.666;2023-03-18T11:46:58;99695.66;;;15.86;45.79
12963;BME280;6546;49.882;8.666;2023-03-18T11:49:27;99696.44;;;15.87;46.21
12963;BME280;6546;49.882;8.666;2023-03-18T11:52:05;99688.03;;;15.71;45.79
12963;BME280;6546;49.882;8.666;2023-03-18T11:54:52;99687.63;;;15.81;45.74
12963;BME280;6546;49.882;8.666;2023-03-18T11:57:30;99687.59;;;15.88;45.64
12963;BME280;6546;49.882;8.666;2023-03-18T12:00:11;99681.94;;;15.97;47.07
12963;BME280;6546;49.882;8.666;2023-03-18T12:03:02;99678.72;;;16.02;46.58
12963;BME280;6546;49.882;8.666;2023-03-18T12:05:49;99667.47;;;16.01;46.70
12963;BME280;6546;49.882;8.666;2023-03-18T12:08:30;99675.91;;;15.97;46.24
12963;BME280;6546;49.882;8.666;2023-03-18T12:11:06;99682.56;;;15.93;45.02
12963;BME280;6546;49.882;8.666;2023-03-18T12:13:46;99680.41;;;15.83;45.20
12963;BME280;6546;49.882;8.666;2023-03-18T12:16:21;99671.38;;;15.72;44.94
12963;BME280;6546;49.882;8.666;2023-03-18T12:19:11;99665.78;;;15.62;44.89
12963;BME280;6546;49.882;8.666;2023-03-18T12:21:52;99658.53;;;15.71;44.99
12963;BME280;6546;49.882;8.666;2023-03-18T12:24:44;99663.31;;;15.81;45.85
12963;BME280;6546;49.882;8.666;2023-03-18T12:27:19;99653.69;;;15.81;46.13
12963;BME280;6546;49.882;8.666;2023-03-18T12:30:24;99653.44;;;15.96;46.41
12963;BME280;6546;49.882;8.666;2023-03-18T12:33:00;99644.97;;;16.00;45.49
12963;BME280;6546;49.882;8.666;2023-03-18T12:35:47;99639.75;;;16.00;45.59
12963;BME280;6546;49.882;8.666;2023-03-18T12:38:41;99636.50;;;16.11;45.51
12963;BME280;6546;49.882;8.666;2023-03-18T12:41:15;99637.03;;;16.20;45.41
12963;BME280;6546;49.882;8.666;2023-03-18T12:43:54;99640.97;;;16.36;46.11
12963;BME280;6546;49.882;8.666;2023-03-18T12:46:29;99637.53;;;16.42;44.04
12963;BME280;6546;49.882;8.666;2023-03-18T12:49:00;99627.88;;;16.42;43.04
12963;BME280;6546;49.882;8.666;2023-03-18T12:51:39;99628.69;;;16.43;43.46
12963;BME280;6546;49.882;8.666;2023-03-18T12:54:13;99629.91;;;16.40;44.77
12963;BME280;6546;49.882;8.666;2023-03-18T12:56:45;99635.56;;;16.37;44.58
12963;BME280;6546;49.882;8.666;2023-03-18T12:59:21;99632.28;;;16.42;45.75
12963;BME280;6546;49.882;8.666;2023-03-18T13:02:01;99627.88;;;16.42;46.53
12963;BME280;6546;49.882;8.666;2023-03-18T13:04:33;99622.22;;;16.45;45.59
12963;BME280;6546;49.882;8.666;2023-03-18T13:07:08;99627.41;;;16.52;45.09
12963;BME280;6546;49.882;8.666;2023-03-18T13:09:43;99619.81;;;16.50;46.03
12963;BME280;6546;49.882;8.666;2023-03-18T13:12:16;99627.03;;;16.55;45.50
12963;BME280;6546;49.882;8.666;2023-03-18T13:14:53;99622.59;;;16.55;46.31
12963;BME280;6546;49.882;8.666;2023-03-18T13:17:28;99628.03;;;16.54;47.48
12963;BME280;6546;49.882;8.666;2023-03-18T13:19:58;99626.41;;;16.59;46.65
12963;BME280;6546;49.882;8.666;2023-03-18T13:22:44;99629.78;;;16.66;46.03
12963;BME280;6546;49.882;8.666;2023-03-18T13:25:27;99626.50;;;16.71;45.35
12963;BME280;6546;49.882;8.666;2023-03-18T13:28:16;99618.09;;;16.69;46.31
12963;BME280;6546;49.882;8.666;2023-03-18T13:31:13;99624.31;;;16.68;46.38